KISM/ISM METAR and TAF weather

Enter ICAO airport designator
Station Type Date Time Source
KISM METAR 2024/06/16 07:56 UTC NOAA

KISM 160756Z AUTO 00000KT 10SM CLR 24/23 A3002 RMK AO2 SLP165 T02390233 $


Station Type Date Time Source
KISM Decoded METAR 2024/06/16 07:56 UTC NOAA

Orlando, Kissimmee Municipal Airport, FL, United States (KISM) 28-17-23N 081-26-14W
Jun 16, 2024 - 03:56 AM EDT / 2024.06.16 0756 UTC
Wind: Calm:0
Visibility: 10 mile(s):0
Sky conditions: clear
Temperature: 75.0 F (23.9 C)
Dew Point: 73.9 F (23.3 C)
Relative Humidity: 96%
Pressure (altimeter): 30.02 in. Hg (1016 hPa)
ob: KISM 160756Z AUTO 00000KT 10SM CLR 24/23 A3002 RMK AO2 SLP165 T02390233
cycle: 8

Station Type Date Time Source
KISM TAF 2024/06/16 06:22 UTC NOAA